sensor_id;sensor_type;location;lat;lon;timestamp;pressure;altitude;pressure_sealevel;temperature;humidity
55685;BME280;41883;49.544;8.646;2022-08-19T00:01:51;100102.28;;;21.26;66.08
55685;BME280;41883;49.544;8.646;2022-08-19T00:04:19;100102.88;;;21.28;65.98
55685;BME280;41883;49.544;8.646;2022-08-19T00:06:46;100099.97;;;21.29;65.73
55685;BME280;41883;49.544;8.646;2022-08-19T00:09:14;100094.31;;;21.31;65.87
55685;BME280;41883;49.544;8.646;2022-08-19T00:11:41;100086.25;;;21.31;66.25
55685;BME280;41883;49.544;8.646;2022-08-19T00:14:08;100080.66;;;21.32;65.92
55685;BME280;41883;49.544;8.646;2022-08-19T00:16:35;100062.06;;;21.31;66.17
55685;BME280;41883;49.544;8.646;2022-08-19T00:19:02;100055.88;;;21.30;66.38
55685;BME280;41883;49.544;8.646;2022-08-19T00:21:27;100043.13;;;21.26;66.67
55685;BME280;41883;49.544;8.646;2022-08-19T00:23:55;100041.50;;;21.25;66.67
55685;BME280;41883;49.544;8.646;2022-08-19T00:26:23;100038.22;;;21.23;66.44
55685;BME280;41883;49.544;8.646;2022-08-19T00:28:48;100027.69;;;21.21;66.73
55685;BME280;41883;49.544;8.646;2022-08-19T00:31:13;100036.81;;;21.20;66.56
55685;BME280;41883;49.544;8.646;2022-08-19T00:33:39;100050.94;;;21.15;67.12
55685;BME280;41883;49.544;8.646;2022-08-19T00:36:08;100049.06;;;21.16;66.77
55685;BME280;41883;49.544;8.646;2022-08-19T00:38:36;100055.28;;;21.16;66.55
55685;BME280;41883;49.544;8.646;2022-08-19T00:41:01;100051.88;;;21.21;66.23
55685;BME280;41883;49.544;8.646;2022-08-19T00:43:27;100049.78;;;21.23;66.19
55685;BME280;41883;49.544;8.646;2022-08-19T00:45:53;100045.00;;;21.25;66.25
55685;BME280;41883;49.544;8.646;2022-08-19T00:48:19;100047.47;;;21.27;66.18
55685;BME280;41883;49.544;8.646;2022-08-19T00:50:47;100049.91;;;21.28;66.29
55685;BME280;41883;49.544;8.646;2022-08-19T00:53:15;100043.47;;;21.29;65.92
55685;BME280;41883;49.544;8.646;2022-08-19T00:55:45;100050.75;;;21.29;66.05
55685;BME280;41883;49.544;8.646;2022-08-19T00:58:14;100055.53;;;21.27;66.18
55685;BME280;41883;49.544;8.646;2022-08-19T01:00:40;100054.72;;;21.26;66.27
55685;BME280;41883;49.544;8.646;2022-08-19T01:03:08;100055.53;;;21.27;66.14
55685;BME280;41883;49.544;8.646;2022-08-19T01:05:34;100053.66;;;21.27;66.15
55685;BME280;41883;49.544;8.646;2022-08-19T01:08:02;100063.34;;;21.28;66.21
55685;BME280;41883;49.544;8.646;2022-08-19T01:10:31;100059.63;;;21.29;66.22
55685;BME280;41883;49.544;8.646;2022-08-19T01:12:58;100048.03;;;21.29;66.29
55685;BME280;41883;49.544;8.646;2022-08-19T01:15:32;100053.66;;;21.27;66.54
55685;BME280;41883;49.544;8.646;2022-08-19T01:18:02;100050.38;;;21.25;66.49
55685;BME280;41883;49.544;8.646;2022-08-19T01:20:29;100050.03;;;21.21;66.60
55685;BME280;41883;49.544;8.646;2022-08-19T01:22:57;100045.69;;;21.20;66.74
55685;BME280;41883;49.544;8.646;2022-08-19T01:25:32;100048.38;;;21.20;66.64
55685;BME280;41883;49.544;8.646;2022-08-19T01:27:59;100058.09;;;21.21;66.38
55685;BME280;41883;49.544;8.646;2022-08-19T01:30:28;100061.22;;;21.18;66.60
55685;BME280;41883;49.544;8.646;2022-08-19T01:32:55;100061.50;;;21.17;66.87
55685;BME280;41883;49.544;8.646;2022-08-19T01:35:22;100069.56;;;21.17;66.83
55685;BME280;41883;49.544;8.646;2022-08-19T01:37:52;100073.06;;;21.17;66.89
55685;BME280;41883;49.544;8.646;2022-08-19T01:40:19;100073.66;;;21.19;66.66
55685;BME280;41883;49.544;8.646;2022-08-19T01:42:46;100075.28;;;21.20;66.69
55685;BME280;41883;49.544;8.646;2022-08-19T01:45:13;100065.91;;;21.23;66.71
55685;BME280;41883;49.544;8.646;2022-08-19T01:47:39;100065.09;;;21.23;66.84
55685;BME280;41883;49.544;8.646;2022-08-19T01:50:08;100064.88;;;21.24;66.72
55685;BME280;41883;49.544;8.646;2022-08-19T01:52:41;100062.41;;;21.23;66.67
55685;BME280;41883;49.544;8.646;2022-08-19T01:55:11;100049.44;;;21.19;66.97
55685;BME280;41883;49.544;8.646;2022-08-19T01:57:39;100052.84;;;21.15;67.10
55685;BME280;41883;49.544;8.646;2022-08-19T02:00:09;100050.63;;;21.12;67.29
55685;BME280;41883;49.544;8.646;2022-08-19T02:02:35;100063.47;;;21.10;67.21
55685;BME280;41883;49.544;8.646;2022-08-19T02:05:00;100060.66;;;21.05;67.41
55685;BME280;41883;49.544;8.646;2022-08-19T02:07:25;100065.66;;;21.01;67.50
55685;BME280;41883;49.544;8.646;2022-08-19T02:09:51;100063.91;;;20.95;67.65
55685;BME280;41883;49.544;8.646;2022-08-19T02:12:16;100067.88;;;20.92;67.85
55685;BME280;41883;49.544;8.646;2022-08-19T02:14:42;100059.09;;;20.85;68.13
55685;BME280;41883;49.544;8.646;2022-08-19T02:17:07;100064.94;;;20.82;67.80
55685;BME280;41883;49.544;8.646;2022-08-19T02:19:33;100075.91;;;20.81;67.79
55685;BME280;41883;49.544;8.646;2022-08-19T02:21:59;100067.97;;;20.74;67.71
55685;BME280;41883;49.544;8.646;2022-08-19T02:24:25;100058.03;;;20.74;68.01
55685;BME280;41883;49.544;8.646;2022-08-19T02:26:50;100066.31;;;20.73;67.63
55685;BME280;41883;49.544;8.646;2022-08-19T02:29:16;100060.94;;;20.73;67.80
55685;BME280;41883;49.544;8.646;2022-08-19T02:31:41;100077.44;;;20.76;67.77
55685;BME280;41883;49.544;8.646;2022-08-19T02:34:06;100078.59;;;20.81;67.78
55685;BME280;41883;49.544;8.646;2022-08-19T02:36:32;100084.56;;;20.83;67.70
55685;BME280;41883;49.544;8.646;2022-08-19T02:38:57;100085.16;;;20.85;67.38
55685;BME280;41883;49.544;8.646;2022-08-19T02:41:26;100077.91;;;20.85;67.50
55685;BME280;41883;49.544;8.646;2022-08-19T02:43:52;100067.41;;;20.84;67.98
55685;BME280;41883;49.544;8.646;2022-08-19T02:46:26;100063.75;;;20.78;68.81
55685;BME280;41883;49.544;8.646;2022-08-19T02:48:56;100066.56;;;20.71;68.17
55685;BME280;41883;49.544;8.646;2022-08-19T02:51:25;100064.09;;;20.70;68.24
55685;BME280;41883;49.544;8.646;2022-08-19T02:53:51;100066.41;;;20.66;68.35
55685;BME280;41883;49.544;8.646;2022-08-19T02:56:16;100073.31;;;20.62;68.38
55685;BME280;41883;49.544;8.646;2022-08-19T02:58:42;100065.94;;;20.57;68.30
55685;BME280;41883;49.544;8.646;2022-08-19T03:01:09;100077.06;;;20.54;68.58
55685;BME280;41883;49.544;8.646;2022-08-19T03:03:35;100066.66;;;20.46;69.03
55685;BME280;41883;49.544;8.646;2022-08-19T03:06:09;100063.03;;;20.41;68.87
55685;BME280;41883;49.544;8.646;2022-08-19T03:08:36;100056.94;;;20.33;69.15
55685;BME280;41883;49.544;8.646;2022-08-19T03:11:02;100053.28;;;20.28;69.52
55685;BME280;41883;49.544;8.646;2022-08-19T03:13:28;100050.69;;;20.21;69.95
55685;BME280;41883;49.544;8.646;2022-08-19T03:15:54;100053.47;;;20.14;70.30
55685;BME280;41883;49.544;8.646;2022-08-19T03:18:19;100051.69;;;20.08;70.38
55685;BME280;41883;49.544;8.646;2022-08-19T03:20:48;100053.56;;;20.08;70.47
55685;BME280;41883;49.544;8.646;2022-08-19T03:23:14;100057.84;;;20.09;69.98
55685;BME280;41883;49.544;8.646;2022-08-19T03:25:43;100059.28;;;20.11;70.15
55685;BME280;41883;49.544;8.646;2022-08-19T03:28:12;100058.25;;;20.12;70.13
55685;BME280;41883;49.544;8.646;2022-08-19T03:30:39;100064.06;;;20.09;70.23
55685;BME280;41883;49.544;8.646;2022-08-19T03:33:06;100067.19;;;20.06;70.10
55685;BME280;41883;49.544;8.646;2022-08-19T03:35:32;100067.03;;;20.01;70.63
55685;BME280;41883;49.544;8.646;2022-08-19T03:37:58;100066.09;;;19.96;70.84
55685;BME280;41883;49.544;8.646;2022-08-19T03:40:24;100059.53;;;19.91;70.78
55685;BME280;41883;49.544;8.646;2022-08-19T03:42:50;100065.56;;;19.87;70.57
55685;BME280;41883;49.544;8.646;2022-08-19T03:45:16;100070.94;;;19.87;70.39
55685;BME280;41883;49.544;8.646;2022-08-19T03:47:42;100082.25;;;19.89;70.40
55685;BME280;41883;49.544;8.646;2022-08-19T03:50:07;100091.94;;;19.90;70.39
55685;BME280;41883;49.544;8.646;2022-08-19T03:52:34;100093.34;;;19.92;70.51
55685;BME280;41883;49.544;8.646;2022-08-19T03:55:01;100098.72;;;19.92;70.36
55685;BME280;41883;49.544;8.646;2022-08-19T03:57:26;100100.59;;;19.92;70.29
55685;BME280;41883;49.544;8.646;2022-08-19T03:59:51;100098.50;;;19.94;70.45
55685;BME280;41883;49.544;8.646;2022-08-19T04:02:17;100106.78;;;19.92;70.40
55685;BME280;41883;49.544;8.646;2022-08-19T04:04:43;100105.22;;;19.85;70.46
55685;BME280;41883;49.544;8.646;2022-08-19T04:07:09;100092.69;;;19.79;71.01
55685;BME280;41883;49.544;8.646;2022-08-19T04:09:34;100098.34;;;19.70;71.26
55685;BME280;41883;49.544;8.646;2022-08-19T04:12:01;100094.88;;;19.63;71.43
55685;BME280;41883;49.544;8.646;2022-08-19T04:14:28;100099.03;;;19.59;71.29
55685;BME280;41883;49.544;8.646;2022-08-19T04:16:58;100104.84;;;19.56;71.46
55685;BME280;41883;49.544;8.646;2022-08-19T04:19:25;100104.25;;;19.54;71.20
55685;BME280;41883;49.544;8.646;2022-08-19T04:21:52;100099.50;;;19.56;71.21
55685;BME280;41883;49.544;8.646;2022-08-19T04:24:18;100101.16;;;19.57;71.67
55685;BME280;41883;49.544;8.646;2022-08-19T04:26:44;100102.41;;;19.55;71.77
55685;BME280;41883;49.544;8.646;2022-08-19T04:29:19;100102.03;;;19.51;72.27
55685;BME280;41883;49.544;8.646;2022-08-19T04:31:48;100090.84;;;19.54;72.05
55685;BME280;41883;49.544;8.646;2022-08-19T04:34:17;100090.41;;;19.57;72.34
55685;BME280;41883;49.544;8.646;2022-08-19T04:36:44;100085.88;;;19.58;72.33
55685;BME280;41883;49.544;8.646;2022-08-19T04:39:22;100085.63;;;19.59;72.59
55685;BME280;41883;49.544;8.646;2022-08-19T04:41:48;100094.06;;;19.63;72.36
55685;BME280;41883;49.544;8.646;2022-08-19T04:44:34;100091.16;;;19.64;72.43
55685;BME280;41883;49.544;8.646;2022-08-19T04:47:00;100088.03;;;19.67;72.47
55685;BME280;41883;49.544;8.646;2022-08-19T04:49:26;100086.19;;;19.68;72.40
55685;BME280;41883;49.544;8.646;2022-08-19T04:51:52;100084.53;;;19.67;72.67
55685;BME280;41883;49.544;8.646;2022-08-19T04:54:21;100081.84;;;19.67;72.72
55685;BME280;41883;49.544;8.646;2022-08-19T04:56:48;100083.94;;;19.65;72.79
55685;BME280;41883;49.544;8.646;2022-08-19T04:59:14;100089.09;;;19.66;72.81
55685;BME280;41883;49.544;8.646;2022-08-19T05:01:42;100085.19;;;19.69;72.96
55685;BME280;41883;49.544;8.646;2022-08-19T05:04:08;100090.09;;;19.72;72.59
55685;BME280;41883;49.544;8.646;2022-08-19T05:06:34;100093.97;;;19.76;72.53
55685;BME280;41883;49.544;8.646;2022-08-19T05:09:04;100092.47;;;19.80;72.30
55685;BME280;41883;49.544;8.646;2022-08-19T05:11:33;100095.28;;;19.85;72.18
55685;BME280;41883;49.544;8.646;2022-08-19T05:13:59;100088.44;;;19.89;72.21
55685;BME280;41883;49.544;8.646;2022-08-19T05:16:25;100096.63;;;19.94;71.93
55685;BME280;41883;49.544;8.646;2022-08-19T05:18:51;100104.03;;;19.99;71.95
55685;BME280;41883;49.544;8.646;2022-08-19T05:21:36;100108.13;;;20.02;72.07
55685;BME280;41883;49.544;8.646;2022-08-19T05:24:21;100111.84;;;20.01;71.77
55685;BME280;41883;49.544;8.646;2022-08-19T05:26:48;100107.69;;;20.05;72.27
55685;BME280;41883;49.544;8.646;2022-08-19T05:29:17;100105.97;;;20.10;72.27
55685;BME280;41883;49.544;8.646;2022-08-19T05:31:43;100099.47;;;20.18;72.28
55685;BME280;41883;49.544;8.646;2022-08-19T05:34:09;100098.72;;;20.29;71.83
55685;BME280;41883;49.544;8.646;2022-08-19T05:36:40;100104.72;;;20.43;71.71
55685;BME280;41883;49.544;8.646;2022-08-19T05:39:08;100116.97;;;20.57;71.33
55685;BME280;41883;49.544;8.646;2022-08-19T05:41:34;100127.97;;;20.68;70.81
55685;BME280;41883;49.544;8.646;2022-08-19T05:44:04;100134.34;;;20.85;70.67
55685;BME280;41883;49.544;8.646;2022-08-19T05:46:32;100132.16;;;20.94;70.36
55685;BME280;41883;49.544;8.646;2022-08-19T05:48:57;100130.56;;;21.05;70.29
55685;BME280;41883;49.544;8.646;2022-08-19T05:51:23;100133.63;;;21.20;69.81
55685;BME280;41883;49.544;8.646;2022-08-19T05:53:50;100131.53;;;21.34;69.23
55685;BME280;41883;49.544;8.646;2022-08-19T05:56:16;100145.63;;;21.48;69.23
55685;BME280;41883;49.544;8.646;2022-08-19T05:58:43;100153.22;;;21.62;68.60
55685;BME280;41883;49.544;8.646;2022-08-19T06:01:12;100149.94;;;21.72;68.03
55685;BME280;41883;49.544;8.646;2022-08-19T06:03:38;100156.94;;;21.85;67.74
55685;BME280;41883;49.544;8.646;2022-08-19T06:06:05;100163.38;;;21.96;67.37
55685;BME280;41883;49.544;8.646;2022-08-19T06:08:31;100169.91;;;22.00;66.76
55685;BME280;41883;49.544;8.646;2022-08-19T06:10:57;100169.56;;;22.08;66.60
55685;BME280;41883;49.544;8.646;2022-08-19T06:13:23;100174.00;;;22.14;65.98
55685;BME280;41883;49.544;8.646;2022-08-19T06:15:49;100176.38;;;22.22;66.06
55685;BME280;41883;49.544;8.646;2022-08-19T06:18:15;100179.75;;;22.30;66.07
55685;BME280;41883;49.544;8.646;2022-08-19T06:20:41;100194.00;;;22.42;65.79
55685;BME280;41883;49.544;8.646;2022-08-19T06:23:07;100192.59;;;22.51;65.39
55685;BME280;41883;49.544;8.646;2022-08-19T06:25:33;100190.97;;;22.50;64.54
55685;BME280;41883;49.544;8.646;2022-08-19T06:27:58;100192.34;;;22.53;64.63
55685;BME280;41883;49.544;8.646;2022-08-19T06:30:23;100190.47;;;22.53;64.63
55685;BME280;41883;49.544;8.646;2022-08-19T06:32:49;100195.25;;;22.63;64.68
55685;BME280;41883;49.544;8.646;2022-08-19T06:35:14;100203.66;;;22.66;64.37
55685;BME280;41883;49.544;8.646;2022-08-19T06:37:40;100210.13;;;22.65;64.24
55685;BME280;41883;49.544;8.646;2022-08-19T06:40:06;100217.25;;;22.72;64.21
55685;BME280;41883;49.544;8.646;2022-08-19T06:42:33;100212.06;;;22.82;63.71
55685;BME280;41883;49.544;8.646;2022-08-19T06:44:59;100209.09;;;22.83;63.16
55685;BME280;41883;49.544;8.646;2022-08-19T06:47:28;100210.84;;;22.89;62.98
55685;BME280;41883;49.544;8.646;2022-08-19T06:49:58;100206.00;;;23.03;62.75
55685;BME280;41883;49.544;8.646;2022-08-19T06:52:34;100211.25;;;23.10;62.50
55685;BME280;41883;49.544;8.646;2022-08-19T06:55:00;100218.91;;;23.01;61.81
55685;BME280;41883;49.544;8.646;2022-08-19T06:57:26;100223.59;;;23.06;61.92
55685;BME280;41883;49.544;8.646;2022-08-19T06:59:52;100224.84;;;23.15;61.92
55685;BME280;41883;49.544;8.646;2022-08-19T07:02:18;100224.50;;;23.11;60.91
55685;BME280;41883;49.544;8.646;2022-08-19T07:04:44;100228.34;;;23.16;61.32
55685;BME280;41883;49.544;8.646;2022-08-19T07:07:13;100217.91;;;23.19;61.30
55685;BME280;41883;49.544;8.646;2022-08-19T07:09:42;100215.03;;;23.26;61.04
55685;BME280;41883;49.544;8.646;2022-08-19T07:12:10;100217.25;;;23.29;60.27
55685;BME280;41883;49.544;8.646;2022-08-19T07:14:37;100206.13;;;23.25;60.61
55685;BME280;41883;49.544;8.646;2022-08-19T07:17:06;100210.28;;;23.16;60.18
55685;BME280;41883;49.544;8.646;2022-08-19T07:19:32;100204.97;;;23.21;60.47
55685;BME280;41883;49.544;8.646;2022-08-19T07:22:01;100207.03;;;23.31;60.41
55685;BME280;41883;49.544;8.646;2022-08-19T07:24:27;100203.72;;;23.41;60.01
55685;BME280;41883;49.544;8.646;2022-08-19T07:26:55;100207.06;;;23.48;60.24
55685;BME280;41883;49.544;8.646;2022-08-19T07:29:22;100205.25;;;23.70;59.57
55685;BME280;41883;49.544;8.646;2022-08-19T07:31:50;100200.50;;;23.94;59.10
55685;BME280;41883;49.544;8.646;2022-08-19T07:34:16;100205.81;;;24.28;58.18
55685;BME280;41883;49.544;8.646;2022-08-19T07:36:42;100201.75;;;24.48;58.06
55685;BME280;41883;49.544;8.646;2022-08-19T07:39:11;100203.91;;;24.46;57.72
55685;BME280;41883;49.544;8.646;2022-08-19T07:41:37;100203.75;;;24.35;57.41
55685;BME280;41883;49.544;8.646;2022-08-19T07:44:04;100203.44;;;24.10;57.37
55685;BME280;41883;49.544;8.646;2022-08-19T07:46:31;100199.13;;;23.92;57.85
55685;BME280;41883;49.544;8.646;2022-08-19T07:48:57;100205.50;;;23.86;57.80
55685;BME280;41883;49.544;8.646;2022-08-19T07:51:23;100214.72;;;23.73;58.27
55685;BME280;41883;49.544;8.646;2022-08-19T07:53:48;100211.56;;;23.76;58.26
55685;BME280;41883;49.544;8.646;2022-08-19T07:56:15;100221.47;;;23.87;58.12
55685;BME280;41883;49.544;8.646;2022-08-19T07:58:43;100213.66;;;24.08;58.08
55685;BME280;41883;49.544;8.646;2022-08-19T08:01:11;100217.69;;;24.27;57.74
55685;BME280;41883;49.544;8.646;2022-08-19T08:03:37;100211.81;;;24.52;57.44
55685;BME280;41883;49.544;8.646;2022-08-19T08:06:21;100209.22;;;24.85;56.90
55685;BME280;41883;49.544;8.646;2022-08-19T08:09:09;100212.19;;;25.10;56.25
55685;BME280;41883;49.544;8.646;2022-08-19T08:11:48;100212.25;;;25.15;54.92
55685;BME280;41883;49.544;8.646;2022-08-19T08:14:20;100201.41;;;25.80;54.83
55685;BME280;41883;49.544;8.646;2022-08-19T08:16:47;100201.00;;;26.51;52.90
55685;BME280;41883;49.544;8.646;2022-08-19T08:19:17;100193.25;;;26.80;50.92
55685;BME280;41883;49.544;8.646;2022-08-19T08:21:43;100198.91;;;26.58;51.06
55685;BME280;41883;49.544;8.646;2022-08-19T08:24:09;100199.81;;;26.26;51.97
55685;BME280;41883;49.544;8.646;2022-08-19T08:26:34;100207.09;;;26.21;52.49
55685;BME280;41883;49.544;8.646;2022-08-19T08:28:59;100208.16;;;26.67;52.17
55685;BME280;41883;49.544;8.646;2022-08-19T08:31:25;100209.91;;;27.25;50.47
55685;BME280;41883;49.544;8.646;2022-08-19T08:33:50;100208.50;;;28.04;49.56
55685;BME280;41883;49.544;8.646;2022-08-19T08:36:16;100201.69;;;28.82;48.13
55685;BME280;41883;49.544;8.646;2022-08-19T08:38:43;100197.06;;;29.27;45.66
55685;BME280;41883;49.544;8.646;2022-08-19T08:41:32;100193.19;;;29.62;43.85
55685;BME280;41883;49.544;8.646;2022-08-19T08:44:00;100202.34;;;29.77;43.09
55685;BME280;41883;49.544;8.646;2022-08-19T08:51:48;100208.19;;;30.42;41.89
55685;BME280;41883;49.544;8.646;2022-08-19T08:54:19;100216.56;;;30.51;42.13
55685;BME280;41883;49.544;8.646;2022-08-19T08:56:46;100219.13;;;30.42;40.96
55685;BME280;41883;49.544;8.646;2022-08-19T08:59:28;100210.84;;;30.23;41.18
55685;BME280;41883;49.544;8.646;2022-08-19T09:01:57;100214.69;;;30.22;41.03
55685;BME280;41883;49.544;8.646;2022-08-19T09:04:22;100210.72;;;29.85;40.36
55685;BME280;41883;49.544;8.646;2022-08-19T09:06:58;100220.69;;;29.32;41.07
55685;BME280;41883;49.544;8.646;2022-08-19T09:09:33;100220.25;;;28.75;41.80
55685;BME280;41883;49.544;8.646;2022-08-19T09:12:16;100213.78;;;28.55;42.52
55685;BME280;41883;49.544;8.646;2022-08-19T09:17:16;100214.38;;;28.47;42.40
55685;BME280;41883;49.544;8.646;2022-08-19T09:22:17;100213.72;;;30.13;40.72
55685;BME280;41883;49.544;8.646;2022-08-19T09:24:46;100217.53;;;31.17;37.88
55685;BME280;41883;49.544;8.646;2022-08-19T09:27:11;100212.22;;;31.45;36.96
55685;BME280;41883;49.544;8.646;2022-08-19T09:29:36;100217.56;;;31.83;36.45
55685;BME280;41883;49.544;8.646;2022-08-19T09:32:02;100209.63;;;32.14;35.86
55685;BME280;41883;49.544;8.646;2022-08-19T09:34:27;100207.91;;;32.18;35.48
55685;BME280;41883;49.544;8.646;2022-08-19T09:36:54;100212.63;;;32.68;34.99
55685;BME280;41883;49.544;8.646;2022-08-19T09:39:23;100121.00;;;32.88;34.62
55685;BME280;41883;49.544;8.646;2022-08-19T09:41:48;100226.00;;;33.42;33.46
55685;BME280;41883;49.544;8.646;2022-08-19T09:44:15;100206.81;;;34.04;33.01
55685;BME280;41883;49.544;8.646;2022-08-19T09:46:41;100203.09;;;34.58;32.27
55685;BME280;41883;49.544;8.646;2022-08-19T09:49:06;100208.97;;;35.00;31.62
55685;BME280;41883;49.544;8.646;2022-08-19T09:51:32;100206.25;;;35.17;31.42
55685;BME280;41883;49.544;8.646;2022-08-19T09:54:02;100214.88;;;34.58;29.88
55685;BME280;41883;49.544;8.646;2022-08-19T09:56:29;100198.94;;;34.60;31.20
55685;BME280;41883;49.544;8.646;2022-08-19T09:58:57;100197.78;;;34.53;31.38
55685;BME280;41883;49.544;8.646;2022-08-19T10:01:24;100199.06;;;34.55;30.34
55685;BME280;41883;49.544;8.646;2022-08-19T10:03:52;100205.97;;;34.44;30.30
55685;BME280;41883;49.544;8.646;2022-08-19T10:06:21;100191.97;;;34.54;30.21
55685;BME280;41883;49.544;8.646;2022-08-19T10:08:47;100200.59;;;35.14;29.92
55685;BME280;41883;49.544;8.646;2022-08-19T10:11:13;100197.88;;;35.78;29.61
55685;BME280;41883;49.544;8.646;2022-08-19T10:13:42;100202.63;;;36.37;28.31
55685;BME280;41883;49.544;8.646;2022-08-19T10:16:10;100189.41;;;36.51;27.47
55685;BME280;41883;49.544;8.646;2022-08-19T10:18:36;100200.72;;;36.59;26.93
55685;BME280;41883;49.544;8.646;2022-08-19T10:21:17;100195.72;;;35.10;28.28
55685;BME280;41883;49.544;8.646;2022-08-19T10:23:45;100186.25;;;35.72;28.73
55685;BME280;41883;49.544;8.646;2022-08-19T10:26:13;100195.84;;;36.34;27.24
55685;BME280;41883;49.544;8.646;2022-08-19T10:28:39;100193.41;;;36.84;26.74
55685;BME280;41883;49.544;8.646;2022-08-19T10:31:31;100207.19;;;37.05;25.09
55685;BME280;41883;49.544;8.646;2022-08-19T10:33:57;100199.13;;;36.99;25.71
55685;BME280;41883;49.544;8.646;2022-08-19T10:36:26;100186.94;;;35.52;27.77
55685;BME280;41883;49.544;8.646;2022-08-19T10:38:53;100178.06;;;34.51;29.49
55685;BME280;41883;49.544;8.646;2022-08-19T10:41:23;100200.94;;;33.89;30.22
55685;BME280;41883;49.544;8.646;2022-08-19T10:43:55;100192.22;;;32.74;31.68
55685;BME280;41883;49.544;8.646;2022-08-19T10:46:23;100186.94;;;32.13;33.18
55685;BME280;41883;49.544;8.646;2022-08-19T10:48:49;100184.78;;;32.38;32.71
55685;BME280;41883;49.544;8.646;2022-08-19T10:51:15;100183.50;;;34.16;31.28
55685;BME280;41883;49.544;8.646;2022-08-19T10:54:00;100179.56;;;35.82;28.83
55685;BME280;41883;49.544;8.646;2022-08-19T10:56:27;100182.88;;;37.07;27.34
55685;BME280;41883;49.544;8.646;2022-08-19T10:59:11;100178.44;;;38.34;25.22
55685;BME280;41883;49.544;8.646;2022-08-19T11:01:39;100185.41;;;36.70;26.44
55685;BME280;41883;49.544;8.646;2022-08-19T11:04:05;100170.66;;;34.77;28.64
55685;BME280;41883;49.544;8.646;2022-08-19T11:06:34;100166.47;;;33.65;30.07
55685;BME280;41883;49.544;8.646;2022-08-19T11:09:00;100167.78;;;32.13;31.66
55685;BME280;41883;49.544;8.646;2022-08-19T11:11:26;100153.88;;;33.10;31.19
55685;BME280;41883;49.544;8.646;2022-08-19T11:13:51;100145.50;;;35.57;28.75
55685;BME280;41883;49.544;8.646;2022-08-19T11:16:20;100153.25;;;36.62;26.81
55685;BME280;41883;49.544;8.646;2022-08-19T11:18:56;100143.56;;;35.58;27.39
55685;BME280;41883;49.544;8.646;2022-08-19T11:21:25;100136.00;;;35.93;26.75
55685;BME280;41883;49.544;8.646;2022-08-19T11:23:55;100129.75;;;36.97;26.31
55685;BME280;41883;49.544;8.646;2022-08-19T11:26:21;100134.41;;;38.13;24.82
55685;BME280;41883;49.544;8.646;2022-08-19T11:28:47;100134.16;;;38.18;23.77
55685;BME280;41883;49.544;8.646;2022-08-19T11:31:17;100133.66;;;38.81;24.21
55685;BME280;41883;49.544;8.646;2022-08-19T11:33:43;100143.09;;;39.36;22.99
55685;BME280;41883;49.544;8.646;2022-08-19T11:36:09;100143.66;;;38.57;24.13
55685;BME280;41883;49.544;8.646;2022-08-19T11:38:35;100132.97;;;38.43;24.40
55685;BME280;41883;49.544;8.646;2022-08-19T11:41:04;100127.66;;;39.83;22.60
55685;BME280;41883;49.544;8.646;2022-08-19T11:43:30;100143.03;;;40.51;20.93
55685;BME280;41883;49.544;8.646;2022-08-19T11:45:56;100128.97;;;39.73;22.01
55685;BME280;41883;49.544;8.646;2022-08-19T11:48:22;100129.81;;;40.25;21.56
55685;BME280;41883;49.544;8.646;2022-08-19T11:50:53;100126.47;;;40.54;20.33
55685;BME280;41883;49.544;8.646;2022-08-19T11:53:22;100138.06;;;39.74;21.39
55685;BME280;41883;49.544;8.646;2022-08-19T11:55:48;100129.59;;;38.62;22.24
55685;BME280;41883;49.544;8.646;2022-08-19T11:58:15;100135.22;;;37.18;24.01
55685;BME280;41883;49.544;8.646;2022-08-19T12:00:42;100121.47;;;36.97;24.18
55685;BME280;41883;49.544;8.646;2022-08-19T12:03:10;100120.06;;;38.60;23.38
55685;BME280;41883;49.544;8.646;2022-08-19T12:05:37;100115.91;;;38.54;22.80
55685;BME280;41883;49.544;8.646;2022-08-19T12:08:03;100129.19;;;38.36;22.99
55685;BME280;41883;49.544;8.646;2022-08-19T12:10:28;100117.34;;;38.23;23.16
55685;BME280;41883;49.544;8.646;2022-08-19T12:12:54;100117.69;;;37.35;24.16
55685;BME280;41883;49.544;8.646;2022-08-19T12:15:19;100122.16;;;36.10;26.46
55685;BME280;41883;49.544;8.646;2022-08-19T12:17:45;100120.53;;;35.24;26.79
55685;BME280;41883;49.544;8.646;2022-08-19T12:20:11;100116.53;;;34.86;27.47
55685;BME280;41883;49.544;8.646;2022-08-19T12:22:37;100120.41;;;35.03;27.28
55685;BME280;41883;49.544;8.646;2022-08-19T12:25:05;100121.38;;;34.89;27.91
55685;BME280;41883;49.544;8.646;2022-08-19T12:27:30;100119.59;;;34.41;27.18
55685;BME280;41883;49.544;8.646;2022-08-19T12:29:56;100127.63;;;34.12;27.78
55685;BME280;41883;49.544;8.646;2022-08-19T12:32:22;100134.72;;;33.73;27.70
55685;BME280;41883;49.544;8.646;2022-08-19T12:34:49;100130.66;;;33.08;28.28
55685;BME280;41883;49.544;8.646;2022-08-19T12:37:15;100138.22;;;32.66;28.20
55685;BME280;41883;49.544;8.646;2022-08-19T12:39:42;100126.81;;;32.22;28.55
55685;BME280;41883;49.544;8.646;2022-08-19T12:42:09;100138.72;;;32.04;29.20
55685;BME280;41883;49.544;8.646;2022-08-19T12:44:36;100133.50;;;31.74;29.41
55685;BME280;41883;49.544;8.646;2022-08-19T12:47:02;100130.69;;;31.66;30.46
55685;BME280;41883;49.544;8.646;2022-08-19T12:49:30;100069.41;;;31.94;29.99
55685;BME280;41883;49.544;8.646;2022-08-19T12:51:56;100127.53;;;32.28;29.94
55685;BME280;41883;49.544;8.646;2022-08-19T12:54:23;100135.69;;;32.42;29.55
55685;BME280;41883;49.544;8.646;2022-08-19T12:56:48;100143.19;;;32.64;28.56
55685;BME280;41883;49.544;8.646;2022-08-19T12:59:13;100136.03;;;32.54;28.22
55685;BME280;41883;49.544;8.646;2022-08-19T13:01:40;100133.56;;;32.66;28.85
55685;BME280;41883;49.544;8.646;2022-08-19T13:04:06;100137.34;;;32.56;29.10